sensor_id;sensor_type;location;lat;lon;timestamp;temperature;humidity
67529;DHT22;54366;51.980;5.856;2023-07-13T00:02:24;18.30;69.20
67529;DHT22;54366;51.980;5.856;2023-07-13T00:04:57;18.40;69.30
67529;DHT22;54366;51.980;5.856;2023-07-13T00:07:23;18.30;69.20
67529;DHT22;54366;51.980;5.856;2023-07-13T00:09:56;18.30;69.20
67529;DHT22;54366;51.980;5.856;2023-07-13T00:12:35;18.30;69.60
67529;DHT22;54366;51.980;5.856;2023-07-13T00:15:17;18.30;69.40
67529;DHT22;54366;51.980;5.856;2023-07-13T00:17:55;18.30;69.50
67529;DHT22;54366;51.980;5.856;2023-07-13T00:20:28;18.20;69.30
67529;DHT22;54366;51.980;5.856;2023-07-13T00:23:01;18.30;69.50
67529;DHT22;54366;51.980;5.856;2023-07-13T00:25:34;18.30;69.00
67529;DHT22;54366;51.980;5.856;2023-07-13T00:28:07;18.30;69.20
67529;DHT22;54366;51.980;5.856;2023-07-13T00:30:33;18.20;69.00
67529;DHT22;54366;51.980;5.856;2023-07-13T00:33:06;18.20;69.30
67529;DHT22;54366;51.980;5.856;2023-07-13T00:35:39;18.20;69.20
67529;DHT22;54366;51.980;5.856;2023-07-13T00:38:06;18.20;69.20
67529;DHT22;54366;51.980;5.856;2023-07-13T00:40:40;18.20;69.50
67529;DHT22;54366;51.980;5.856;2023-07-13T00:43:19;18.10;69.40
67529;DHT22;54366;51.980;5.856;2023-07-13T00:46:23;18.10;69.50
67529;DHT22;54366;51.980;5.856;2023-07-13T00:49:06;18.00;69.40
67529;DHT22;54366;51.980;5.856;2023-07-13T00:52:05;18.00;69.40
67529;DHT22;54366;51.980;5.856;2023-07-13T00:54:41;18.00;69.40
67529;DHT22;54366;51.980;5.856;2023-07-13T00:57:19;17.90;69.60
67529;DHT22;54366;51.980;5.856;2023-07-13T00:59:49;17.90;69.70
67529;DHT22;54366;51.980;5.856;2023-07-13T01:02:25;17.90;69.50
67529;DHT22;54366;51.980;5.856;2023-07-13T01:04:58;17.90;69.80
67529;DHT22;54366;51.980;5.856;2023-07-13T01:07:31;17.90;69.50
67529;DHT22;54366;51.980;5.856;2023-07-13T01:10:04;17.90;69.80
67529;DHT22;54366;51.980;5.856;2023-07-13T01:12:31;17.90;69.80
67529;DHT22;54366;51.980;5.856;2023-07-13T01:15:05;17.90;69.80
67529;DHT22;54366;51.980;5.856;2023-07-13T01:17:39;17.90;69.80
67529;DHT22;54366;51.980;5.856;2023-07-13T01:20:12;17.80;69.40
67529;DHT22;54366;51.980;5.856;2023-07-13T01:22:45;17.80;69.60
67529;DHT22;54366;51.980;5.856;2023-07-13T01:25:20;17.80;69.70
67529;DHT22;54366;51.980;5.856;2023-07-13T01:27:53;17.80;69.90
67529;DHT22;54366;51.980;5.856;2023-07-13T01:30:26;17.80;69.90
67529;DHT22;54366;51.980;5.856;2023-07-13T01:32:52;17.70;69.50
67529;DHT22;54366;51.980;5.856;2023-07-13T01:35:26;17.70;69.50
67529;DHT22;54366;51.980;5.856;2023-07-13T01:37:59;17.70;69.30
67529;DHT22;54366;51.980;5.856;2023-07-13T01:40:27;17.70;69.50
67529;DHT22;54366;51.980;5.856;2023-07-13T01:43:01;17.70;69.70
67529;DHT22;54366;51.980;5.856;2023-07-13T01:45:40;17.70;69.70
67529;DHT22;54366;51.980;5.856;2023-07-13T01:48:20;17.70;69.80
67529;DHT22;54366;51.980;5.856;2023-07-13T01:50:48;17.60;69.70
67529;DHT22;54366;51.980;5.856;2023-07-13T01:53:21;17.60;69.70
67529;DHT22;54366;51.980;5.856;2023-07-13T01:55:47;17.60;69.70
67529;DHT22;54366;51.980;5.856;2023-07-13T01:58:20;17.60;70.10
67529;DHT22;54366;51.980;5.856;2023-07-13T02:00:53;17.60;70.00
67529;DHT22;54366;51.980;5.856;2023-07-13T02:03:27;17.50;69.90
67529;DHT22;54366;51.980;5.856;2023-07-13T02:05:54;17.50;69.90
67529;DHT22;54366;51.980;5.856;2023-07-13T02:08:27;17.50;70.20
67529;DHT22;54366;51.980;5.856;2023-07-13T02:11:02;17.50;70.30
67529;DHT22;54366;51.980;5.856;2023-07-13T02:13:35;17.50;70.40
67529;DHT22;54366;51.980;5.856;2023-07-13T02:16:08;17.50;70.20
67529;DHT22;54366;51.980;5.856;2023-07-13T02:18:34;17.40;70.30
67529;DHT22;54366;51.980;5.856;2023-07-13T02:21:07;17.40;70.30
67529;DHT22;54366;51.980;5.856;2023-07-13T02:23:33;17.40;70.20
67529;DHT22;54366;51.980;5.856;2023-07-13T02:26:06;17.40;70.40
67529;DHT22;54366;51.980;5.856;2023-07-13T02:28:32;17.40;70.40
67529;DHT22;54366;51.980;5.856;2023-07-13T02:31:11;17.30;70.60
67529;DHT22;54366;51.980;5.856;2023-07-13T02:33:45;17.30;70.70
67529;DHT22;54366;51.980;5.856;2023-07-13T02:36:12;17.30;70.80
67529;DHT22;54366;51.980;5.856;2023-07-13T02:38:49;17.30;70.70
67529;DHT22;54366;51.980;5.856;2023-07-13T02:41:22;17.20;70.60
67529;DHT22;54366;51.980;5.856;2023-07-13T02:43:49;17.30;70.60
67529;DHT22;54366;51.980;5.856;2023-07-13T02:46:30;17.20;70.80
67529;DHT22;54366;51.980;5.856;2023-07-13T02:49:03;17.20;70.90
67529;DHT22;54366;51.980;5.856;2023-07-13T02:51:36;17.20;71.00
67529;DHT22;54366;51.980;5.856;2023-07-13T02:54:10;17.10;71.10
67529;DHT22;54366;51.980;5.856;2023-07-13T02:56:37;17.10;71.20
67529;DHT22;54366;51.980;5.856;2023-07-13T02:59:11;17.10;71.20
67529;DHT22;54366;51.980;5.856;2023-07-13T03:01:44;17.10;71.20
67529;DHT22;54366;51.980;5.856;2023-07-13T03:04:17;17.10;71.50
67529;DHT22;54366;51.980;5.856;2023-07-13T03:06:52;17.00;71.60
67529;DHT22;54366;51.980;5.856;2023-07-13T03:09:18;17.00;71.60
67529;DHT22;54366;51.980;5.856;2023-07-13T03:11:54;17.00;71.60
67529;DHT22;54366;51.980;5.856;2023-07-13T03:14:30;17.00;72.50
67529;DHT22;54366;51.980;5.856;2023-07-13T03:17:06;17.00;71.90
67529;DHT22;54366;51.980;5.856;2023-07-13T03:19:34;17.00;72.30
67529;DHT22;54366;51.980;5.856;2023-07-13T03:22:07;16.90;72.20
67529;DHT22;54366;51.980;5.856;2023-07-13T03:24:41;16.90;72.10
67529;DHT22;54366;51.980;5.856;2023-07-13T03:27:08;16.90;72.30
67529;DHT22;54366;51.980;5.856;2023-07-13T03:29:43;16.90;72.30
67529;DHT22;54366;51.980;5.856;2023-07-13T03:32:18;16.80;72.30
67529;DHT22;54366;51.980;5.856;2023-07-13T03:34:50;16.90;72.40
67529;DHT22;54366;51.980;5.856;2023-07-13T03:37:23;16.80;72.50
67529;DHT22;54366;51.980;5.856;2023-07-13T03:39:57;16.80;72.80
67529;DHT22;54366;51.980;5.856;2023-07-13T03:42:23;16.80;72.80
67529;DHT22;54366;51.980;5.856;2023-07-13T03:44:56;16.80;72.90
67529;DHT22;54366;51.980;5.856;2023-07-13T03:47:32;16.80;73.00
67529;DHT22;54366;51.980;5.856;2023-07-13T03:50:11;16.80;73.20
67529;DHT22;54366;51.980;5.856;2023-07-13T03:52:44;16.70;73.10
67529;DHT22;54366;51.980;5.856;2023-07-13T03:55:15;16.70;73.20
67529;DHT22;54366;51.980;5.856;2023-07-13T03:57:54;16.70;73.10
67529;DHT22;54366;51.980;5.856;2023-07-13T04:00:29;16.70;73.20
67529;DHT22;54366;51.980;5.856;2023-07-13T04:03:02;16.70;73.30
67529;DHT22;54366;51.980;5.856;2023-07-13T04:05:35;16.70;73.20
67529;DHT22;54366;51.980;5.856;2023-07-13T04:08:08;16.80;73.60
67529;DHT22;54366;51.980;5.856;2023-07-13T04:10:34;16.70;73.60
67529;DHT22;54366;51.980;5.856;2023-07-13T04:13:07;16.70;73.60
67529;DHT22;54366;51.980;5.856;2023-07-13T04:15:34;16.70;73.60
67529;DHT22;54366;51.980;5.856;2023-07-13T04:18:07;16.70;73.70
67529;DHT22;54366;51.980;5.856;2023-07-13T04:20:33;16.70;73.60
67529;DHT22;54366;51.980;5.856;2023-07-13T04:23:06;16.70;73.80
67529;DHT22;54366;51.980;5.856;2023-07-13T04:25:42;16.70;73.80
67529;DHT22;54366;51.980;5.856;2023-07-13T04:28:16;16.70;73.80
67529;DHT22;54366;51.980;5.856;2023-07-13T04:30:43;16.70;74.00
67529;DHT22;54366;51.980;5.856;2023-07-13T04:33:16;16.80;74.20
67529;DHT22;54366;51.980;5.856;2023-07-13T04:35:43;16.80;74.30
67529;DHT22;54366;51.980;5.856;2023-07-13T04:38:19;16.80;74.30
67529;DHT22;54366;51.980;5.856;2023-07-13T04:40:47;16.90;74.40
67529;DHT22;54366;51.980;5.856;2023-07-13T04:43:20;16.90;74.30
67529;DHT22;54366;51.980;5.856;2023-07-13T04:46:08;16.90;74.70
67529;DHT22;54366;51.980;5.856;2023-07-13T04:48:41;17.00;74.80
67529;DHT22;54366;51.980;5.856;2023-07-13T04:51:07;17.00;74.40
67529;DHT22;54366;51.980;5.856;2023-07-13T04:53:40;17.00;74.80
67529;DHT22;54366;51.980;5.856;2023-07-13T04:56:06;17.10;74.40
67529;DHT22;54366;51.980;5.856;2023-07-13T04:58:39;17.10;74.10
67529;DHT22;54366;51.980;5.856;2023-07-13T05:01:06;17.20;74.10
67529;DHT22;54366;51.980;5.856;2023-07-13T05:03:39;17.20;73.90
67529;DHT22;54366;51.980;5.856;2023-07-13T05:06:12;17.20;74.20
67529;DHT22;54366;51.980;5.856;2023-07-13T05:08:39;17.20;74.20
67529;DHT22;54366;51.980;5.856;2023-07-13T05:11:12;17.20;74.40
67529;DHT22;54366;51.980;5.856;2023-07-13T05:13:45;17.30;74.50
67529;DHT22;54366;51.980;5.856;2023-07-13T05:16:19;17.30;74.20
67529;DHT22;54366;51.980;5.856;2023-07-13T05:18:52;17.30;74.00
67529;DHT22;54366;51.980;5.856;2023-07-13T05:21:25;17.30;73.80
67529;DHT22;54366;51.980;5.856;2023-07-13T05:23:58;17.30;74.20
67529;DHT22;54366;51.980;5.856;2023-07-13T05:26:24;17.30;74.20
67529;DHT22;54366;51.980;5.856;2023-07-13T05:28:57;17.30;74.50
67529;DHT22;54366;51.980;5.856;2023-07-13T05:31:23;17.40;74.00
67529;DHT22;54366;51.980;5.856;2023-07-13T05:33:56;17.40;74.20
67529;DHT22;54366;51.980;5.856;2023-07-13T05:36:29;17.40;74.00
67529;DHT22;54366;51.980;5.856;2023-07-13T05:39:03;17.40;74.30
67529;DHT22;54366;51.980;5.856;2023-07-13T05:41:36;17.40;74.30
67529;DHT22;54366;51.980;5.856;2023-07-13T05:44:03;17.50;74.60
67529;DHT22;54366;51.980;5.856;2023-07-13T05:46:35;17.50;74.50
67529;DHT22;54366;51.980;5.856;2023-07-13T05:49:08;17.50;74.40
67529;DHT22;54366;51.980;5.856;2023-07-13T05:51:48;17.50;74.40
67529;DHT22;54366;51.980;5.856;2023-07-13T05:54:21;17.60;74.50
67529;DHT22;54366;51.980;5.856;2023-07-13T05:56:54;17.60;74.60
67529;DHT22;54366;51.980;5.856;2023-07-13T05:59:27;17.60;74.40
67529;DHT22;54366;51.980;5.856;2023-07-13T06:02:00;17.70;74.30
67529;DHT22;54366;51.980;5.856;2023-07-13T06:04:33;17.70;74.40
67529;DHT22;54366;51.980;5.856;2023-07-13T06:06:59;17.80;74.50
67529;DHT22;54366;51.980;5.856;2023-07-13T06:09:32;17.80;74.60
67529;DHT22;54366;51.980;5.856;2023-07-13T06:12:05;17.90;74.60
67529;DHT22;54366;51.980;5.856;2023-07-13T06:14:38;17.90;75.10
67529;DHT22;54366;51.980;5.856;2023-07-13T06:17:11;17.90;75.00
67529;DHT22;54366;51.980;5.856;2023-07-13T06:19:38;18.00;74.90
67529;DHT22;54366;51.980;5.856;2023-07-13T06:22:10;18.00;74.80
67529;DHT22;54366;51.980;5.856;2023-07-13T06:24:43;18.10;74.70
67529;DHT22;54366;51.980;5.856;2023-07-13T06:27:16;18.20;74.90
67529;DHT22;54366;51.980;5.856;2023-07-13T06:29:49;18.20;74.80
67529;DHT22;54366;51.980;5.856;2023-07-13T06:32:22;18.30;75.10
67529;DHT22;54366;51.980;5.856;2023-07-13T06:34:55;18.30;75.30
67529;DHT22;54366;51.980;5.856;2023-07-13T06:37:28;18.40;75.10
67529;DHT22;54366;51.980;5.856;2023-07-13T06:39:54;18.60;74.90
67529;DHT22;54366;51.980;5.856;2023-07-13T06:42:27;18.70;74.60
67529;DHT22;54366;51.980;5.856;2023-07-13T06:44:53;18.80;74.70
67529;DHT22;54366;51.980;5.856;2023-07-13T06:47:32;18.90;74.40
67529;DHT22;54366;51.980;5.856;2023-07-13T06:50:06;19.00;74.00
67529;DHT22;54366;51.980;5.856;2023-07-13T06:52:32;19.00;74.20
67529;DHT22;54366;51.980;5.856;2023-07-13T06:55:06;19.00;73.70
67529;DHT22;54366;51.980;5.856;2023-07-13T06:57:32;19.10;74.20
67529;DHT22;54366;51.980;5.856;2023-07-13T07:00:06;19.20;74.00
67529;DHT22;54366;51.980;5.856;2023-07-13T07:02:32;19.30;74.10
67529;DHT22;54366;51.980;5.856;2023-07-13T07:05:05;19.40;73.70
67529;DHT22;54366;51.980;5.856;2023-07-13T07:07:38;19.40;73.60
67529;DHT22;54366;51.980;5.856;2023-07-13T07:10:05;19.50;73.40
67529;DHT22;54366;51.980;5.856;2023-07-13T07:12:38;19.60;73.30
67529;DHT22;54366;51.980;5.856;2023-07-13T07:15:11;19.60;73.30
67529;DHT22;54366;51.980;5.856;2023-07-13T07:17:44;19.70;73.20
67529;DHT22;54366;51.980;5.856;2023-07-13T07:20:17;19.70;73.00
67529;DHT22;54366;51.980;5.856;2023-07-13T07:22:43;19.70;72.90
67529;DHT22;54366;51.980;5.856;2023-07-13T07:25:16;19.70;73.10
67529;DHT22;54366;51.980;5.856;2023-07-13T07:27:49;19.70;72.30
67529;DHT22;54366;51.980;5.856;2023-07-13T07:30:15;19.70;72.50
67529;DHT22;54366;51.980;5.856;2023-07-13T07:32:48;19.70;72.40
67529;DHT22;54366;51.980;5.856;2023-07-13T07:35:21;19.70;72.30
67529;DHT22;54366;51.980;5.856;2023-07-13T07:37:47;19.70;72.00
67529;DHT22;54366;51.980;5.856;2023-07-13T07:40:20;19.80;72.10
67529;DHT22;54366;51.980;5.856;2023-07-13T07:42:53;19.80;72.10
67529;DHT22;54366;51.980;5.856;2023-07-13T07:45:26;19.90;72.00
67529;DHT22;54366;51.980;5.856;2023-07-13T07:48:07;20.00;71.90
67529;DHT22;54366;51.980;5.856;2023-07-13T07:50:39;20.10;72.10
67529;DHT22;54366;51.980;5.856;2023-07-13T07:53:12;20.20;72.00
67529;DHT22;54366;51.980;5.856;2023-07-13T07:55:45;20.30;71.60
67529;DHT22;54366;51.980;5.856;2023-07-13T07:58:18;20.40;71.50
67529;DHT22;54366;51.980;5.856;2023-07-13T08:00:51;20.40;71.00
67529;DHT22;54366;51.980;5.856;2023-07-13T08:03:24;20.40;70.80
67529;DHT22;54366;51.980;5.856;2023-07-13T08:05:53;20.50;70.70
67529;DHT22;54366;51.980;5.856;2023-07-13T08:08:26;20.60;70.70
67529;DHT22;54366;51.980;5.856;2023-07-13T08:10:53;20.80;70.40
67529;DHT22;54366;51.980;5.856;2023-07-13T08:13:25;20.90;70.30
67529;DHT22;54366;51.980;5.856;2023-07-13T08:15:51;21.00;70.10
67529;DHT22;54366;51.980;5.856;2023-07-13T08:18:24;21.20;69.70
67529;DHT22;54366;51.980;5.856;2023-07-13T08:20:57;21.20;68.60
67529;DHT22;54366;51.980;5.856;2023-07-13T08:23:31;21.20;69.00
67529;DHT22;54366;51.980;5.856;2023-07-13T08:25:58;21.20;69.10
67529;DHT22;54366;51.980;5.856;2023-07-13T08:28:32;21.30;69.30
67529;DHT22;54366;51.980;5.856;2023-07-13T08:31:06;21.50;69.30
67529;DHT22;54366;51.980;5.856;2023-07-13T08:33:42;21.70;68.60
67529;DHT22;54366;51.980;5.856;2023-07-13T08:36:15;22.00;68.00
67529;DHT22;54366;51.980;5.856;2023-07-13T08:38:48;22.20;67.20
67529;DHT22;54366;51.980;5.856;2023-07-13T08:41:22;22.40;66.40
67529;DHT22;54366;51.980;5.856;2023-07-13T08:43:56;22.50;65.00
67529;DHT22;54366;51.980;5.856;2023-07-13T08:46:38;22.50;65.00
67529;DHT22;54366;51.980;5.856;2023-07-13T08:49:15;22.40;64.70
67529;DHT22;54366;51.980;5.856;2023-07-13T08:52:08;22.20;65.10
67529;DHT22;54366;51.980;5.856;2023-07-13T08:54:45;22.00;63.80
67529;DHT22;54366;51.980;5.856;2023-07-13T08:57:23;21.90;63.70
67529;DHT22;54366;51.980;5.856;2023-07-13T09:00:00;21.90;64.20
67529;DHT22;54366;51.980;5.856;2023-07-13T09:02:34;22.10;64.00
67529;DHT22;54366;51.980;5.856;2023-07-13T09:05:22;22.20;62.90
67529;DHT22;54366;51.980;5.856;2023-07-13T09:08:23;22.40;61.70
67529;DHT22;54366;51.980;5.856;2023-07-13T09:11:16;22.60;61.70
67529;DHT22;54366;51.980;5.856;2023-07-13T09:14:29;22.70;60.70
67529;DHT22;54366;51.980;5.856;2023-07-13T09:17:20;22.80;59.90
67529;DHT22;54366;51.980;5.856;2023-07-13T09:20:04;22.80;60.80
67529;DHT22;54366;51.980;5.856;2023-07-13T09:22:42;22.90;59.70
67529;DHT22;54366;51.980;5.856;2023-07-13T09:25:29;23.00;59.00
67529;DHT22;54366;51.980;5.856;2023-07-13T09:28:11;23.00;58.50
67529;DHT22;54366;51.980;5.856;2023-07-13T09:30:56;22.90;58.20
67529;DHT22;54366;51.980;5.856;2023-07-13T09:33:30;22.80;59.30
67529;DHT22;54366;51.980;5.856;2023-07-13T09:35:58;22.50;61.90
67529;DHT22;54366;51.980;5.856;2023-07-13T09:38:31;22.40;62.80
67529;DHT22;54366;51.980;5.856;2023-07-13T09:41:09;22.20;64.10
67529;DHT22;54366;51.980;5.856;2023-07-13T09:44:10;22.00;63.70
67529;DHT22;54366;51.980;5.856;2023-07-13T09:46:54;21.80;63.30
67529;DHT22;54366;51.980;5.856;2023-07-13T09:49:35;21.70;64.20
67529;DHT22;54366;51.980;5.856;2023-07-13T09:52:10;21.70;65.10
67529;DHT22;54366;51.980;5.856;2023-07-13T09:54:49;21.70;65.30
67529;DHT22;54366;51.980;5.856;2023-07-13T09:57:23;21.90;66.30
67529;DHT22;54366;51.980;5.856;2023-07-13T09:59:56;21.90;66.10
67529;DHT22;54366;51.980;5.856;2023-07-13T10:02:34;21.90;66.10
67529;DHT22;54366;51.980;5.856;2023-07-13T10:05:13;21.90;65.70
67529;DHT22;54366;51.980;5.856;2023-07-13T10:07:47;22.00;65.60
67529;DHT22;54366;51.980;5.856;2023-07-13T10:10:21;22.10;65.90
67529;DHT22;54366;51.980;5.856;2023-07-13T10:12:54;22.40;65.20
67529;DHT22;54366;51.980;5.856;2023-07-13T10:15:27;22.70;64.50
67529;DHT22;54366;51.980;5.856;2023-07-13T10:17:55;23.00;64.00
67529;DHT22;54366;51.980;5.856;2023-07-13T10:20:29;23.30;62.10
67529;DHT22;54366;51.980;5.856;2023-07-13T10:23:05;23.60;59.90
67529;DHT22;54366;51.980;5.856;2023-07-13T10:25:46;23.80;60.70
67529;DHT22;54366;51.980;5.856;2023-07-13T10:28:30;24.10;60.20
67529;DHT22;54366;51.980;5.856;2023-07-13T10:31:07;24.40;58.70
67529;DHT22;54366;51.980;5.856;2023-07-13T10:33:43;24.30;57.80
67529;DHT22;54366;51.980;5.856;2023-07-13T10:39:20;24.00;57.10
67529;DHT22;54366;51.980;5.856;2023-07-13T10:42:04;24.00;57.40
67529;DHT22;54366;51.980;5.856;2023-07-13T10:44:37;23.90;57.10
67529;DHT22;54366;51.980;5.856;2023-07-13T10:47:15;23.60;58.40
67529;DHT22;54366;51.980;5.856;2023-07-13T10:49:58;23.40;59.80
67529;DHT22;54366;51.980;5.856;2023-07-13T10:52:47;23.20;62.00
67529;DHT22;54366;51.980;5.856;2023-07-13T10:55:54;23.00;64.50
67529;DHT22;54366;51.980;5.856;2023-07-13T10:58:35;23.10;66.10
67529;DHT22;54366;51.980;5.856;2023-07-13T11:01:18;23.30;66.20
67529;DHT22;54366;51.980;5.856;2023-07-13T11:03:54;23.50;67.00
67529;DHT22;54366;51.980;5.856;2023-07-13T11:06:37;23.90;65.80
67529;DHT22;54366;51.980;5.856;2023-07-13T11:12:53;24.20;63.10
67529;DHT22;54366;51.980;5.856;2023-07-13T11:15:49;24.30;61.80
67529;DHT22;54366;51.980;5.856;2023-07-13T11:18:23;24.40;59.20
67529;DHT22;54366;51.980;5.856;2023-07-13T11:20:51;24.20;58.30
67529;DHT22;54366;51.980;5.856;2023-07-13T11:23:29;24.10;58.80
67529;DHT22;54366;51.980;5.856;2023-07-13T11:26:03;23.90;56.30
67529;DHT22;54366;51.980;5.856;2023-07-13T11:28:31;23.80;56.90
67529;DHT22;54366;51.980;5.856;2023-07-13T11:31:13;23.70;55.20
67529;DHT22;54366;51.980;5.856;2023-07-13T11:33:53;23.80;55.80
67529;DHT22;54366;51.980;5.856;2023-07-13T11:36:33;24.00;56.10
67529;DHT22;54366;51.980;5.856;2023-07-13T11:39:17;24.20;55.10
67529;DHT22;54366;51.980;5.856;2023-07-13T11:41:53;24.50;54.50
67529;DHT22;54366;51.980;5.856;2023-07-13T11:44:29;24.80;53.50
67529;DHT22;54366;51.980;5.856;2023-07-13T11:47:18;25.10;52.90
67529;DHT22;54366;51.980;5.856;2023-07-13T11:49:58;25.40;52.50
67529;DHT22;54366;51.980;5.856;2023-07-13T11:52:35;25.70;53.40
67529;DHT22;54366;51.980;5.856;2023-07-13T11:55:21;26.00;52.50
67529;DHT22;54366;51.980;5.856;2023-07-13T11:57:58;26.00;51.50
67529;DHT22;54366;51.980;5.856;2023-07-13T12:00:32;25.90;51.70
67529;DHT22;54366;51.980;5.856;2023-07-13T12:03:05;25.70;51.60
67529;DHT22;54366;51.980;5.856;2023-07-13T12:05:59;25.30;51.10
67529;DHT22;54366;51.980;5.856;2023-07-13T12:08:39;25.00;52.20
67529;DHT22;54366;51.980;5.856;2023-07-13T12:11:17;24.70;53.20
67529;DHT22;54366;51.980;5.856;2023-07-13T12:13:50;24.60;54.30
67529;DHT22;54366;51.980;5.856;2023-07-13T12:16:29;24.50;55.00
67529;DHT22;54366;51.980;5.856;2023-07-13T12:19:03;24.60;55.90
67529;DHT22;54366;51.980;5.856;2023-07-13T12:21:36;24.80;55.70
67529;DHT22;54366;51.980;5.856;2023-07-13T12:24:20;24.90;55.10
67529;DHT22;54366;51.980;5.856;2023-07-13T12:27:05;25.00;54.10
67529;DHT22;54366;51.980;5.856;2023-07-13T12:29:37;25.20;52.70
67529;DHT22;54366;51.980;5.856;2023-07-13T12:32:17;25.40;53.70
67529;DHT22;54366;51.980;5.856;2023-07-13T12:34:55;25.70;52.60
67529;DHT22;54366;51.980;5.856;2023-07-13T12:37:28;26.00;51.60
67529;DHT22;54366;51.980;5.856;2023-07-13T12:40:04;26.00;50.00
67529;DHT22;54366;51.980;5.856;2023-07-13T12:42:41;25.80;50.50
67529;DHT22;54366;51.980;5.856;2023-07-13T12:45:23;25.50;49.80
67529;DHT22;54366;51.980;5.856;2023-07-13T12:48:15;25.20;49.70
67529;DHT22;54366;51.980;5.856;2023-07-13T12:50:49;25.00;51.30
67529;DHT22;54366;51.980;5.856;2023-07-13T12:53:33;24.80;51.60
67529;DHT22;54366;51.980;5.856;2023-07-13T12:56:21;24.60;51.70
67529;DHT22;54366;51.980;5.856;2023-07-13T12:59:00;24.50;52.20
67529;DHT22;54366;51.980;5.856;2023-07-13T13:01:35;24.40;52.40
67529;DHT22;54366;51.980;5.856;2023-07-13T13:04:03;24.30;50.40
67529;DHT22;54366;51.980;5.856;2023-07-13T13:06:39;24.00;51.00
67529;DHT22;54366;51.980;5.856;2023-07-13T13:09:13;24.00;51.70
67529;DHT22;54366;51.980;5.856;2023-07-13T13:11:45;24.00;52.70
67529;DHT22;54366;51.980;5.856;2023-07-13T13:14:12;24.20;53.20
67529;DHT22;54366;51.980;5.856;2023-07-13T13:16:49;24.30;52.60
67529;DHT22;54366;51.980;5.856;2023-07-13T13:19:28;24.50;51.40
67529;DHT22;54366;51.980;5.856;2023-07-13T13:22:01;24.50;49.90
67529;DHT22;54366;51.980;5.856;2023-07-13T13:24:34;24.70;49.30
67529;DHT22;54366;51.980;5.856;2023-07-13T13:27:22;24.90;48.00
67529;DHT22;54366;51.980;5.856;2023-07-13T13:29:55;25.00;47.30
67529;DHT22;54366;51.980;5.856;2023-07-13T13:32:22;25.20;48.50
67529;DHT22;54366;51.980;5.856;2023-07-13T13:35:19;25.40;48.30
67529;DHT22;54366;51.980;5.856;2023-07-13T13:37:52;25.60;47.40
67529;DHT22;54366;51.980;5.856;2023-07-13T13:40:32;25.60;47.70
67529;DHT22;54366;51.980;5.856;2023-07-13T13:42:59;25.70;47.00
67529;DHT22;54366;51.980;5.856;2023-07-13T13:45:32;25.80;46.40
67529;DHT22;54366;51.980;5.856;2023-07-13T13:48:20;25.80;46.10
67529;DHT22;54366;51.980;5.856;2023-07-13T13:50:54;25.90;45.40
67529;DHT22;54366;51.980;5.856;2023-07-13T13:53:27;26.00;44.90
67529;DHT22;54366;51.980;5.856;2023-07-13T13:56:00;26.00;46.10
67529;DHT22;54366;51.980;5.856;2023-07-13T13:58:33;26.10;45.70
67529;DHT22;54366;51.980;5.856;2023-07-13T14:01:00;26.20;45.90
67529;DHT22;54366;51.980;5.856;2023-07-13T14:03:32;26.40;45.50
67529;DHT22;54366;51.980;5.856;2023-07-13T14:05:59;26.40;46.20
67529;DHT22;54366;51.980;5.856;2023-07-13T14:08:32;26.50;45.50
67529;DHT22;54366;51.980;5.856;2023-07-13T14:11:07;26.40;44.90
67529;DHT22;54366;51.980;5.856;2023-07-13T14:13:37;26.30;44.60
67529;DHT22;54366;51.980;5.856;2023-07-13T14:16:15;26.10;44.60
67529;DHT22;54366;51.980;5.856;2023-07-13T14:18:50;26.10;45.00
67529;DHT22;54366;51.980;5.856;2023-07-13T14:21:24;26.00;44.30
67529;DHT22;54366;51.980;5.856;2023-07-13T14:23:56;25.90;44.70
67529;DHT22;54366;51.980;5.856;2023-07-13T14:26:25;25.80;45.40
67529;DHT22;54366;51.980;5.856;2023-07-13T14:28:58;25.80;46.10
67529;DHT22;54366;51.980;5.856;2023-07-13T14:31:26;25.80;46.10
67529;DHT22;54366;51.980;5.856;2023-07-13T14:34:01;25.80;45.30
67529;DHT22;54366;51.980;5.856;2023-07-13T14:36:39;25.70;46.20
67529;DHT22;54366;51.980;5.856;2023-07-13T14:39:18;25.70;46.70
67529;DHT22;54366;51.980;5.856;2023-07-13T14:41:53;25.60;45.60
67529;DHT22;54366;51.980;5.856;2023-07-13T14:44:29;25.50;45.40
67529;DHT22;54366;51.980;5.856;2023-07-13T14:47:09;25.50;44.90
67529;DHT22;54366;51.980;5.856;2023-07-13T14:49:48;25.40;44.80
67529;DHT22;54366;51.980;5.856;2023-07-13T14:52:23;25.40;45.60
67529;DHT22;54366;51.980;5.856;2023-07-13T14:54:50;25.50;46.00
67529;DHT22;54366;51.980;5.856;2023-07-13T14:57:22;25.50;45.80
67529;DHT22;54366;51.980;5.856;2023-07-13T14:59:55;25.50;46.50
67529;DHT22;54366;51.980;5.856;2023-07-13T15:02:43;25.50;46.90
67529;DHT22;54366;51.980;5.856;2023-07-13T15:05:21;25.50;47.10
67529;DHT22;54366;51.980;5.856;2023-07-13T15:08:01;25.50;47.10
67529;DHT22;54366;51.980;5.856;2023-07-13T15:10:34;25.40;46.70
67529;DHT22;54366;51.980;5.856;2023-07-13T15:13:21;25.40;46.00
67529;DHT22;54366;51.980;5.856;2023-07-13T15:15:55;25.40;46.40
67529;DHT22;54366;51.980;5.856;2023-07-13T15:18:28;25.40;46.30
67529;DHT22;54366;51.980;5.856;2023-07-13T15:21:01;25.40;46.50
67529;DHT22;54366;51.980;5.856;2023-07-13T15:23:30;25.20;46.80
67529;DHT22;54366;51.980;5.856;2023-07-13T15:26:02;25.20;47.10
67529;DHT22;54366;51.980;5.856;2023-07-13T15:28:35;25.20;47.00
67529;DHT22;54366;51.980;5.856;2023-07-13T15:31:22;25.20;47.20
67529;DHT22;54366;51.980;5.856;2023-07-13T15:33:57;25.10;47.70
67529;DHT22;54366;51.980;5.856;2023-07-13T15:36:24;25.00;47.80
67529;DHT22;54366;51.980;5.856;2023-07-13T15:39:00;25.00;47.80
67529;DHT22;54366;51.980;5.856;2023-07-13T15:41:28;24.90;47.50
67529;DHT22;54366;51.980;5.856;2023-07-13T15:44:07;24.90;47.40
67529;DHT22;54366;51.980;5.856;2023-07-13T15:46:58;24.80;47.60
67529;DHT22;54366;51.980;5.856;2023-07-13T15:49:32;24.70;47.90
67529;DHT22;54366;51.980;5.856;2023-07-13T15:52:22;24.70;48.20
67529;DHT22;54366;51.980;5.856;2023-07-13T15:54:55;24.70;48.60
67529;DHT22;54366;51.980;5.856;2023-07-13T15:57:30;24.70;48.60
67529;DHT22;54366;51.980;5.856;2023-07-13T16:00:20;24.70;48.60
67529;DHT22;54366;51.980;5.856;2023-07-13T16:02:53;24.70;49.20
67529;DHT22;54366;51.980;5.856;2023-07-13T16:05:26;24.70;50.00
67529;DHT22;54366;51.980;5.856;2023-07-13T16:08:00;24.70;49.90
67529;DHT22;54366;51.980;5.856;2023-07-13T16:10:34;24.70;50.00
67529;DHT22;54366;51.980;5.856;2023-07-13T16:13:20;24.70;50.20
67529;DHT22;54366;51.980;5.856;2023-07-13T16:15:53;24.70;50.70
67529;DHT22;54366;51.980;5.856;2023-07-13T16:18:28;24.60;50.20
67529;DHT22;54366;51.980;5.856;2023-07-13T16:21:01;24.60;49.90
67529;DHT22;54366;51.980;5.856;2023-07-13T16:23:35;24.50;50.10
67529;DHT22;54366;51.980;5.856;2023-07-13T16:26:22;24.50;50.60